sensor_id;sensor_type;location;lat;lon;timestamp;P1;durP1;ratioP1;P2;durP2;ratioP2
75450;SDS011;64029;48.244;9.188;2023-07-16T00:00:13;9.10;;;6.90;;
75450;SDS011;64029;48.244;9.188;2023-07-16T00:02:43;7.47;;;6.57;;
75450;SDS011;64029;48.244;9.188;2023-07-16T00:05:10;7.30;;;6.57;;
75450;SDS011;64029;48.244;9.188;2023-07-16T00:07:37;6.93;;;6.30;;
75450;SDS011;64029;48.244;9.188;2023-07-16T00:10:04;8.30;;;6.33;;
75450;SDS011;64029;48.244;9.188;2023-07-16T00:12:33;6.53;;;5.60;;
75450;SDS011;64029;48.244;9.188;2023-07-16T00:15:00;8.20;;;5.83;;
75450;SDS011;64029;48.244;9.188;2023-07-16T00:17:27;4.63;;;4.23;;
75450;SDS011;64029;48.244;9.188;2023-07-16T00:19:54;4.20;;;2.70;;
75450;SDS011;64029;48.244;9.188;2023-07-16T00:22:21;3.87;;;2.73;;
75450;SDS011;64029;48.244;9.188;2023-07-16T00:24:48;2.73;;;2.43;;
75450;SDS011;64029;48.244;9.188;2023-07-16T00:27:15;1.80;;;1.70;;
75450;SDS011;64029;48.244;9.188;2023-07-16T00:29:44;2.20;;;1.50;;
75450;SDS011;64029;48.244;9.188;2023-07-16T00:32:11;3.37;;;1.70;;
75450;SDS011;64029;48.244;9.188;2023-07-16T00:34:38;3.20;;;1.40;;
75450;SDS011;64029;48.244;9.188;2023-07-16T00:37:05;1.87;;;1.30;;
75450;SDS011;64029;48.244;9.188;2023-07-16T00:39:32;2.50;;;1.53;;
75450;SDS011;64029;48.244;9.188;2023-07-16T00:41:59;1.60;;;1.17;;
75450;SDS011;64029;48.244;9.188;2023-07-16T00:44:25;1.53;;;1.37;;
75450;SDS011;64029;48.244;9.188;2023-07-16T00:46:54;1.60;;;1.40;;
75450;SDS011;64029;48.244;9.188;2023-07-16T00:49:21;1.97;;;1.10;;
75450;SDS011;64029;48.244;9.188;2023-07-16T00:51:48;1.30;;;1.20;;
75450;SDS011;64029;48.244;9.188;2023-07-16T00:54:16;2.13;;;1.20;;
75450;SDS011;64029;48.244;9.188;2023-07-16T00:56:43;1.70;;;1.30;;
75450;SDS011;64029;48.244;9.188;2023-07-16T00:59:13;2.37;;;1.47;;
75450;SDS011;64029;48.244;9.188;2023-07-16T01:01:39;2.03;;;1.33;;
75450;SDS011;64029;48.244;9.188;2023-07-16T01:04:09;2.53;;;1.40;;
75450;SDS011;64029;48.244;9.188;2023-07-16T01:06:36;2.80;;;1.40;;
75450;SDS011;64029;48.244;9.188;2023-07-16T01:09:07;1.97;;;1.60;;
75450;SDS011;64029;48.244;9.188;2023-07-16T01:11:35;4.80;;;1.37;;
75450;SDS011;64029;48.244;9.188;2023-07-16T01:14:03;1.57;;;1.47;;
75450;SDS011;64029;48.244;9.188;2023-07-16T01:16:31;2.27;;;1.87;;
75450;SDS011;64029;48.244;9.188;2023-07-16T01:18:58;2.23;;;1.63;;
75450;SDS011;64029;48.244;9.188;2023-07-16T01:21:28;2.80;;;1.40;;
75450;SDS011;64029;48.244;9.188;2023-07-16T01:24:05;1.37;;;1.27;;
75450;SDS011;64029;48.244;9.188;2023-07-16T01:26:57;1.70;;;1.50;;
75450;SDS011;64029;48.244;9.188;2023-07-16T01:29:40;3.13;;;1.70;;
75450;SDS011;64029;48.244;9.188;2023-07-16T01:32:09;1.90;;;1.27;;
75450;SDS011;64029;48.244;9.188;2023-07-16T01:34:38;1.93;;;1.30;;
75450;SDS011;64029;48.244;9.188;2023-07-16T01:37:06;3.27;;;1.70;;
75450;SDS011;64029;48.244;9.188;2023-07-16T01:39:33;2.70;;;1.60;;
75450;SDS011;64029;48.244;9.188;2023-07-16T01:42:00;2.03;;;1.70;;
75450;SDS011;64029;48.244;9.188;2023-07-16T01:44:27;2.73;;;1.20;;
75450;SDS011;64029;48.244;9.188;2023-07-16T01:47:06;4.17;;;1.20;;
75450;SDS011;64029;48.244;9.188;2023-07-16T01:49:37;1.50;;;1.40;;
75450;SDS011;64029;48.244;9.188;2023-07-16T01:52:05;1.60;;;1.50;;
75450;SDS011;64029;48.244;9.188;2023-07-16T01:54:32;2.60;;;1.47;;
75450;SDS011;64029;48.244;9.188;2023-07-16T01:56:59;2.40;;;1.80;;
75450;SDS011;64029;48.244;9.188;2023-07-16T01:59:26;1.87;;;1.30;;
75450;SDS011;64029;48.244;9.188;2023-07-16T02:01:53;1.57;;;1.33;;
75450;SDS011;64029;48.244;9.188;2023-07-16T02:04:21;3.07;;;1.70;;
75450;SDS011;64029;48.244;9.188;2023-07-16T02:06:48;1.70;;;1.60;;
75450;SDS011;64029;48.244;9.188;2023-07-16T02:09:15;2.77;;;2.10;;
75450;SDS011;64029;48.244;9.188;2023-07-16T02:11:43;2.20;;;1.53;;
75450;SDS011;64029;48.244;9.188;2023-07-16T02:14:10;1.67;;;1.57;;
75450;SDS011;64029;48.244;9.188;2023-07-16T02:16:39;1.80;;;1.50;;
75450;SDS011;64029;48.244;9.188;2023-07-16T02:19:06;1.37;;;1.27;;
75450;SDS011;64029;48.244;9.188;2023-07-16T02:21:34;2.40;;;1.50;;
75450;SDS011;64029;48.244;9.188;2023-07-16T02:24:01;2.90;;;1.43;;
75450;SDS011;64029;48.244;9.188;2023-07-16T02:26:27;2.80;;;1.60;;
75450;SDS011;64029;48.244;9.188;2023-07-16T02:28:54;2.37;;;1.53;;
75450;SDS011;64029;48.244;9.188;2023-07-16T02:31:21;1.50;;;1.37;;
75450;SDS011;64029;48.244;9.188;2023-07-16T02:33:48;1.83;;;1.40;;
75450;SDS011;64029;48.244;9.188;2023-07-16T02:36:15;2.33;;;1.60;;
75450;SDS011;64029;48.244;9.188;2023-07-16T02:38:43;3.00;;;1.60;;
75450;SDS011;64029;48.244;9.188;2023-07-16T02:41:10;1.70;;;1.60;;
75450;SDS011;64029;48.244;9.188;2023-07-16T02:43:37;2.57;;;1.33;;
75450;SDS011;64029;48.244;9.188;2023-07-16T02:46:04;2.13;;;1.70;;
75450;SDS011;64029;48.244;9.188;2023-07-16T02:48:31;1.67;;;1.57;;
75450;SDS011;64029;48.244;9.188;2023-07-16T02:50:58;1.50;;;1.40;;
75450;SDS011;64029;48.244;9.188;2023-07-16T02:53:24;3.00;;;1.83;;
75450;SDS011;64029;48.244;9.188;2023-07-16T02:55:53;2.30;;;1.77;;
75450;SDS011;64029;48.244;9.188;2023-07-16T02:58:20;4.50;;;1.57;;
75450;SDS011;64029;48.244;9.188;2023-07-16T03:00:47;3.70;;;1.60;;
75450;SDS011;64029;48.244;9.188;2023-07-16T03:03:13;4.63;;;1.53;;
75450;SDS011;64029;48.244;9.188;2023-07-16T03:05:40;3.43;;;1.90;;
75450;SDS011;64029;48.244;9.188;2023-07-16T03:08:07;1.63;;;1.53;;
75450;SDS011;64029;48.244;9.188;2023-07-16T03:10:34;4.60;;;1.57;;
75450;SDS011;64029;48.244;9.188;2023-07-16T03:13:02;2.13;;;1.70;;
75450;SDS011;64029;48.244;9.188;2023-07-16T03:15:29;1.80;;;1.70;;
75450;SDS011;64029;48.244;9.188;2023-07-16T03:17:56;1.47;;;1.37;;
75450;SDS011;64029;48.244;9.188;2023-07-16T03:20:23;2.33;;;1.90;;
75450;SDS011;64029;48.244;9.188;2023-07-16T03:22:50;2.57;;;1.60;;
75450;SDS011;64029;48.244;9.188;2023-07-16T03:25:17;3.53;;;1.77;;
75450;SDS011;64029;48.244;9.188;2023-07-16T03:27:43;2.10;;;1.63;;
75450;SDS011;64029;48.244;9.188;2023-07-16T03:30:12;1.80;;;1.70;;
75450;SDS011;64029;48.244;9.188;2023-07-16T03:32:39;2.00;;;1.50;;
75450;SDS011;64029;48.244;9.188;2023-07-16T03:35:06;3.03;;;1.80;;
75450;SDS011;64029;48.244;9.188;2023-07-16T03:37:34;2.70;;;1.50;;
75450;SDS011;64029;48.244;9.188;2023-07-16T03:40:11;2.17;;;1.97;;
75450;SDS011;64029;48.244;9.188;2023-07-16T03:42:39;4.10;;;2.00;;
75450;SDS011;64029;48.244;9.188;2023-07-16T03:45:07;2.20;;;2.00;;
75450;SDS011;64029;48.244;9.188;2023-07-16T03:47:36;3.30;;;1.80;;
75450;SDS011;64029;48.244;9.188;2023-07-16T03:50:03;4.43;;;2.17;;
75450;SDS011;64029;48.244;9.188;2023-07-16T03:52:30;1.83;;;1.37;;
75450;SDS011;64029;48.244;9.188;2023-07-16T03:54:57;6.40;;;1.87;;
75450;SDS011;64029;48.244;9.188;2023-07-16T03:57:24;4.17;;;1.57;;
75450;SDS011;64029;48.244;9.188;2023-07-16T03:59:51;1.83;;;1.50;;
75450;SDS011;64029;48.244;9.188;2023-07-16T04:02:18;2.70;;;1.50;;
75450;SDS011;64029;48.244;9.188;2023-07-16T04:04:46;2.47;;;1.60;;
75450;SDS011;64029;48.244;9.188;2023-07-16T04:07:13;3.10;;;1.83;;
75450;SDS011;64029;48.244;9.188;2023-07-16T04:09:40;1.60;;;1.50;;
75450;SDS011;64029;48.244;9.188;2023-07-16T04:12:07;6.97;;;1.70;;
75450;SDS011;64029;48.244;9.188;2023-07-16T04:14:34;5.03;;;1.70;;
75450;SDS011;64029;48.244;9.188;2023-07-16T04:17:01;2.23;;;1.63;;
75450;SDS011;64029;48.244;9.188;2023-07-16T04:19:28;1.80;;;1.60;;
75450;SDS011;64029;48.244;9.188;2023-07-16T04:21:57;1.90;;;1.80;;
75450;SDS011;64029;48.244;9.188;2023-07-16T04:24:24;3.40;;;1.93;;
75450;SDS011;64029;48.244;9.188;2023-07-16T04:26:52;3.50;;;1.60;;
75450;SDS011;64029;48.244;9.188;2023-07-16T04:29:19;1.77;;;1.53;;
75450;SDS011;64029;48.244;9.188;2023-07-16T04:31:46;2.40;;;1.50;;
75450;SDS011;64029;48.244;9.188;2023-07-16T04:34:13;1.70;;;1.60;;
75450;SDS011;64029;48.244;9.188;2023-07-16T04:36:41;3.90;;;1.63;;
75450;SDS011;64029;48.244;9.188;2023-07-16T04:39:10;1.80;;;1.57;;
75450;SDS011;64029;48.244;9.188;2023-07-16T04:41:37;1.60;;;1.50;;
75450;SDS011;64029;48.244;9.188;2023-07-16T04:44:04;2.67;;;2.43;;
75450;SDS011;64029;48.244;9.188;2023-07-16T04:46:32;3.40;;;1.73;;
75450;SDS011;64029;48.244;9.188;2023-07-16T04:48:58;1.77;;;1.67;;
75450;SDS011;64029;48.244;9.188;2023-07-16T04:51:25;1.70;;;1.57;;
75450;SDS011;64029;48.244;9.188;2023-07-16T04:53:52;2.03;;;1.83;;
75450;SDS011;64029;48.244;9.188;2023-07-16T04:56:20;2.27;;;1.67;;
75450;SDS011;64029;48.244;9.188;2023-07-16T04:58:47;1.73;;;1.63;;
75450;SDS011;64029;48.244;9.188;2023-07-16T05:01:14;2.00;;;1.80;;
75450;SDS011;64029;48.244;9.188;2023-07-16T05:03:41;2.03;;;1.60;;
75450;SDS011;64029;48.244;9.188;2023-07-16T05:06:08;2.87;;;2.07;;
75450;SDS011;64029;48.244;9.188;2023-07-16T05:08:35;3.30;;;1.40;;
75450;SDS011;64029;48.244;9.188;2023-07-16T05:11:02;4.93;;;1.63;;
75450;SDS011;64029;48.244;9.188;2023-07-16T05:13:31;1.93;;;1.73;;
75450;SDS011;64029;48.244;9.188;2023-07-16T05:15:57;1.93;;;1.60;;
75450;SDS011;64029;48.244;9.188;2023-07-16T05:18:24;1.87;;;1.63;;
75450;SDS011;64029;48.244;9.188;2023-07-16T05:20:51;2.17;;;1.97;;
75450;SDS011;64029;48.244;9.188;2023-07-16T05:23:18;3.30;;;1.80;;
75450;SDS011;64029;48.244;9.188;2023-07-16T05:25:46;2.40;;;1.60;;
75450;SDS011;64029;48.244;9.188;2023-07-16T05:28:13;6.30;;;1.93;;
75450;SDS011;64029;48.244;9.188;2023-07-16T05:30:42;2.20;;;2.00;;
75450;SDS011;64029;48.244;9.188;2023-07-16T05:33:09;2.30;;;1.87;;
75450;SDS011;64029;48.244;9.188;2023-07-16T05:35:36;5.10;;;1.80;;
75450;SDS011;64029;48.244;9.188;2023-07-16T05:38:03;2.83;;;1.93;;
75450;SDS011;64029;48.244;9.188;2023-07-16T05:40:30;2.30;;;1.70;;
75450;SDS011;64029;48.244;9.188;2023-07-16T05:42:56;3.10;;;2.27;;
75450;SDS011;64029;48.244;9.188;2023-07-16T05:45:23;3.73;;;1.87;;
75450;SDS011;64029;48.244;9.188;2023-07-16T05:47:51;2.90;;;1.90;;
75450;SDS011;64029;48.244;9.188;2023-07-16T05:50:18;2.40;;;2.00;;
75450;SDS011;64029;48.244;9.188;2023-07-16T05:52:45;2.50;;;2.27;;
75450;SDS011;64029;48.244;9.188;2023-07-16T05:55:13;5.70;;;2.43;;
75450;SDS011;64029;48.244;9.188;2023-07-16T05:57:41;2.23;;;2.03;;
75450;SDS011;64029;48.244;9.188;2023-07-16T06:00:08;2.17;;;1.97;;
75450;SDS011;64029;48.244;9.188;2023-07-16T06:02:35;2.57;;;1.87;;
75450;SDS011;64029;48.244;9.188;2023-07-16T06:05:04;5.83;;;1.70;;
75450;SDS011;64029;48.244;9.188;2023-07-16T06:07:33;3.77;;;2.20;;
75450;SDS011;64029;48.244;9.188;2023-07-16T06:10:00;2.30;;;2.10;;
75450;SDS011;64029;48.244;9.188;2023-07-16T06:12:27;2.40;;;2.20;;
75450;SDS011;64029;48.244;9.188;2023-07-16T06:14:54;4.33;;;1.97;;
75450;SDS011;64029;48.244;9.188;2023-07-16T06:17:21;3.33;;;1.97;;
75450;SDS011;64029;48.244;9.188;2023-07-16T06:19:47;3.27;;;2.10;;
75450;SDS011;64029;48.244;9.188;2023-07-16T06:22:17;1.90;;;1.80;;
75450;SDS011;64029;48.244;9.188;2023-07-16T06:24:44;2.57;;;2.17;;
75450;SDS011;64029;48.244;9.188;2023-07-16T06:27:11;2.93;;;1.70;;
75450;SDS011;64029;48.244;9.188;2023-07-16T06:29:38;3.63;;;2.00;;
75450;SDS011;64029;48.244;9.188;2023-07-16T06:32:08;3.43;;;1.93;;
75450;SDS011;64029;48.244;9.188;2023-07-16T06:34:36;2.67;;;2.10;;
75450;SDS011;64029;48.244;9.188;2023-07-16T06:37:04;3.60;;;1.97;;
75450;SDS011;64029;48.244;9.188;2023-07-16T06:39:33;3.37;;;2.37;;
75450;SDS011;64029;48.244;9.188;2023-07-16T06:42:00;2.40;;;2.20;;
75450;SDS011;64029;48.244;9.188;2023-07-16T06:44:27;2.93;;;1.60;;
75450;SDS011;64029;48.244;9.188;2023-07-16T06:46:54;2.90;;;2.10;;
75450;SDS011;64029;48.244;9.188;2023-07-16T06:49:21;4.83;;;2.27;;
75450;SDS011;64029;48.244;9.188;2023-07-16T06:51:48;6.83;;;2.07;;
75450;SDS011;64029;48.244;9.188;2023-07-16T06:54:15;3.10;;;2.13;;
75450;SDS011;64029;48.244;9.188;2023-07-16T06:56:46;4.83;;;2.53;;
75450;SDS011;64029;48.244;9.188;2023-07-16T06:59:13;5.40;;;1.80;;
75450;SDS011;64029;48.244;9.188;2023-07-16T07:01:40;2.63;;;2.00;;
75450;SDS011;64029;48.244;9.188;2023-07-16T07:04:07;3.40;;;2.03;;
75450;SDS011;64029;48.244;9.188;2023-07-16T07:06:33;2.17;;;1.97;;
75450;SDS011;64029;48.244;9.188;2023-07-16T07:09:00;4.70;;;1.93;;
75450;SDS011;64029;48.244;9.188;2023-07-16T07:11:27;3.60;;;2.53;;
75450;SDS011;64029;48.244;9.188;2023-07-16T07:13:56;6.30;;;2.10;;
75450;SDS011;64029;48.244;9.188;2023-07-16T07:16:22;2.27;;;1.83;;
75450;SDS011;64029;48.244;9.188;2023-07-16T07:18:49;3.43;;;2.20;;
75450;SDS011;64029;48.244;9.188;2023-07-16T07:21:16;2.43;;;1.90;;
75450;SDS011;64029;48.244;9.188;2023-07-16T07:23:43;4.03;;;2.10;;
75450;SDS011;64029;48.244;9.188;2023-07-16T07:26:10;2.80;;;1.90;;
75450;SDS011;64029;48.244;9.188;2023-07-16T07:28:37;2.20;;;2.00;;
75450;SDS011;64029;48.244;9.188;2023-07-16T07:31:05;3.53;;;1.90;;
75450;SDS011;64029;48.244;9.188;2023-07-16T07:33:32;1.90;;;1.63;;
75450;SDS011;64029;48.244;9.188;2023-07-16T07:35:59;2.03;;;1.80;;
75450;SDS011;64029;48.244;9.188;2023-07-16T07:38:26;2.10;;;1.90;;
75450;SDS011;64029;48.244;9.188;2023-07-16T07:40:53;2.47;;;1.90;;
75450;SDS011;64029;48.244;9.188;2023-07-16T07:43:20;1.80;;;1.70;;
75450;SDS011;64029;48.244;9.188;2023-07-16T07:45:47;2.93;;;1.97;;
75450;SDS011;64029;48.244;9.188;2023-07-16T07:48:15;4.30;;;1.83;;
75450;SDS011;64029;48.244;9.188;2023-07-16T07:50:42;4.73;;;1.83;;
75450;SDS011;64029;48.244;9.188;2023-07-16T07:53:09;4.77;;;2.20;;
75450;SDS011;64029;48.244;9.188;2023-07-16T07:55:36;4.10;;;2.13;;
75450;SDS011;64029;48.244;9.188;2023-07-16T07:58:03;2.63;;;1.77;;
75450;SDS011;64029;48.244;9.188;2023-07-16T08:00:30;2.33;;;1.70;;
75450;SDS011;64029;48.244;9.188;2023-07-16T08:02:56;3.10;;;1.87;;
75450;SDS011;64029;48.244;9.188;2023-07-16T08:05:25;2.17;;;1.67;;
75450;SDS011;64029;48.244;9.188;2023-07-16T08:07:52;5.40;;;2.07;;
75450;SDS011;64029;48.244;9.188;2023-07-16T08:10:20;2.60;;;2.07;;
75450;SDS011;64029;48.244;9.188;2023-07-16T08:12:47;3.20;;;1.70;;
75450;SDS011;64029;48.244;9.188;2023-07-16T08:15:15;2.40;;;2.13;;
75450;SDS011;64029;48.244;9.188;2023-07-16T08:17:42;3.50;;;1.87;;
75450;SDS011;64029;48.244;9.188;2023-07-16T08:20:09;3.03;;;1.67;;
75450;SDS011;64029;48.244;9.188;2023-07-16T08:22:38;2.53;;;2.10;;
75450;SDS011;64029;48.244;9.188;2023-07-16T08:25:06;2.70;;;1.90;;
75450;SDS011;64029;48.244;9.188;2023-07-16T08:27:34;2.13;;;1.50;;
75450;SDS011;64029;48.244;9.188;2023-07-16T08:30:01;3.53;;;2.23;;
75450;SDS011;64029;48.244;9.188;2023-07-16T08:32:28;3.73;;;1.83;;
75450;SDS011;64029;48.244;9.188;2023-07-16T08:34:55;2.53;;;1.83;;
75450;SDS011;64029;48.244;9.188;2023-07-16T08:37:22;2.03;;;1.83;;
75450;SDS011;64029;48.244;9.188;2023-07-16T08:39:51;4.07;;;1.83;;
75450;SDS011;64029;48.244;9.188;2023-07-16T08:42:19;3.23;;;2.13;;
75450;SDS011;64029;48.244;9.188;2023-07-16T08:44:47;2.43;;;1.83;;
75450;SDS011;64029;48.244;9.188;2023-07-16T08:47:15;3.40;;;1.90;;
75450;SDS011;64029;48.244;9.188;2023-07-16T08:49:43;3.23;;;1.60;;
75450;SDS011;64029;48.244;9.188;2023-07-16T08:52:20;2.93;;;1.90;;
75450;SDS011;64029;48.244;9.188;2023-07-16T08:54:48;2.27;;;1.90;;
75450;SDS011;64029;48.244;9.188;2023-07-16T08:57:16;7.47;;;2.00;;
75450;SDS011;64029;48.244;9.188;2023-07-16T08:59:45;3.77;;;1.90;;
75450;SDS011;64029;48.244;9.188;2023-07-16T09:02:15;2.63;;;1.87;;
75450;SDS011;64029;48.244;9.188;2023-07-16T09:04:43;3.30;;;2.00;;
75450;SDS011;64029;48.244;9.188;2023-07-16T09:07:10;2.93;;;2.30;;
75450;SDS011;64029;48.244;9.188;2023-07-16T09:09:37;3.00;;;1.93;;
75450;SDS011;64029;48.244;9.188;2023-07-16T09:12:04;3.13;;;1.90;;
75450;SDS011;64029;48.244;9.188;2023-07-16T09:14:33;4.00;;;1.80;;
75450;SDS011;64029;48.244;9.188;2023-07-16T09:17:00;3.70;;;1.80;;
75450;SDS011;64029;48.244;9.188;2023-07-16T09:19:31;4.10;;;2.00;;
75450;SDS011;64029;48.244;9.188;2023-07-16T09:21:59;3.20;;;2.00;;
75450;SDS011;64029;48.244;9.188;2023-07-16T09:24:26;3.70;;;1.87;;
75450;SDS011;64029;48.244;9.188;2023-07-16T09:26:55;3.10;;;1.97;;
75450;SDS011;64029;48.244;9.188;2023-07-16T09:29:24;4.93;;;2.10;;
75450;SDS011;64029;48.244;9.188;2023-07-16T09:31:54;2.50;;;2.00;;
75450;SDS011;64029;48.244;9.188;2023-07-16T09:34:21;3.57;;;2.37;;
75450;SDS011;64029;48.244;9.188;2023-07-16T09:36:48;3.70;;;2.20;;
75450;SDS011;64029;48.244;9.188;2023-07-16T09:39:16;2.47;;;2.00;;
75450;SDS011;64029;48.244;9.188;2023-07-16T09:41:44;4.77;;;2.03;;
75450;SDS011;64029;48.244;9.188;2023-07-16T09:44:12;3.60;;;2.03;;
75450;SDS011;64029;48.244;9.188;2023-07-16T09:46:41;4.60;;;2.27;;
75450;SDS011;64029;48.244;9.188;2023-07-16T09:49:10;5.07;;;2.27;;
75450;SDS011;64029;48.244;9.188;2023-07-16T09:51:37;2.30;;;2.10;;
75450;SDS011;64029;48.244;9.188;2023-07-16T09:54:05;2.53;;;1.93;;
75450;SDS011;64029;48.244;9.188;2023-07-16T09:56:34;6.27;;;2.27;;
75450;SDS011;64029;48.244;9.188;2023-07-16T09:59:05;3.03;;;1.80;;
75450;SDS011;64029;48.244;9.188;2023-07-16T10:01:39;2.40;;;2.00;;
75450;SDS011;64029;48.244;9.188;2023-07-16T10:04:12;3.20;;;2.00;;
75450;SDS011;64029;48.244;9.188;2023-07-16T10:06:50;3.77;;;2.13;;
75450;SDS011;64029;48.244;9.188;2023-07-16T10:09:33;2.30;;;1.90;;
75450;SDS011;64029;48.244;9.188;2023-07-16T10:14:50;3.60;;;1.97;;
75450;SDS011;64029;48.244;9.188;2023-07-16T10:17:18;1.97;;;1.70;;
75450;SDS011;64029;48.244;9.188;2023-07-16T10:19:50;2.17;;;1.60;;
75450;SDS011;64029;48.244;9.188;2023-07-16T10:22:31;2.23;;;2.03;;
75450;SDS011;64029;48.244;9.188;2023-07-16T10:25:02;3.27;;;2.00;;
75450;SDS011;64029;48.244;9.188;2023-07-16T10:27:30;3.07;;;2.07;;
75450;SDS011;64029;48.244;9.188;2023-07-16T10:29:59;4.20;;;2.60;;
75450;SDS011;64029;48.244;9.188;2023-07-16T10:32:28;2.67;;;2.47;;
75450;SDS011;64029;48.244;9.188;2023-07-16T10:34:57;2.37;;;2.00;;
75450;SDS011;64029;48.244;9.188;2023-07-16T10:37:25;4.30;;;2.57;;
75450;SDS011;64029;48.244;9.188;2023-07-16T10:39:53;2.47;;;1.90;;
75450;SDS011;64029;48.244;9.188;2023-07-16T10:42:20;3.37;;;2.00;;
75450;SDS011;64029;48.244;9.188;2023-07-16T10:44:49;5.40;;;2.20;;
75450;SDS011;64029;48.244;9.188;2023-07-16T10:47:18;2.90;;;1.70;;
75450;SDS011;64029;48.244;9.188;2023-07-16T10:49:47;3.60;;;1.90;;
75450;SDS011;64029;48.244;9.188;2023-07-16T10:52:15;2.23;;;2.03;;
75450;SDS011;64029;48.244;9.188;2023-07-16T10:54:42;2.63;;;2.17;;
75450;SDS011;64029;48.244;9.188;2023-07-16T10:57:10;4.33;;;3.10;;
75450;SDS011;64029;48.244;9.188;2023-07-16T10:59:38;2.80;;;1.93;;
75450;SDS011;64029;48.244;9.188;2023-07-16T11:02:08;2.50;;;2.00;;
75450;SDS011;64029;48.244;9.188;2023-07-16T11:04:38;2.30;;;2.10;;
75450;SDS011;64029;48.244;9.188;2023-07-16T11:07:06;3.27;;;2.03;;
75450;SDS011;64029;48.244;9.188;2023-07-16T11:09:39;18.23;;;16.33;;
75450;SDS011;64029;48.244;9.188;2023-07-16T11:12:08;17.03;;;15.13;;
75450;SDS011;64029;48.244;9.188;2023-07-16T11:14:35;6.40;;;4.70;;
75450;SDS011;64029;48.244;9.188;2023-07-16T11:17:05;4.70;;;3.70;;
75450;SDS011;64029;48.244;9.188;2023-07-16T11:19:33;7.80;;;7.00;;
75450;SDS011;64029;48.244;9.188;2023-07-16T11:22:02;16.03;;;13.47;;
75450;SDS011;64029;48.244;9.188;2023-07-16T11:24:39;8.03;;;7.23;;
75450;SDS011;64029;48.244;9.188;2023-07-16T11:27:12;4.90;;;3.10;;
75450;SDS011;64029;48.244;9.188;2023-07-16T11:29:40;3.10;;;2.80;;
75450;SDS011;64029;48.244;9.188;2023-07-16T11:32:10;20.40;;;13.93;;
75450;SDS011;64029;48.244;9.188;2023-07-16T11:34:37;10.83;;;7.67;;
75450;SDS011;64029;48.244;9.188;2023-07-16T11:37:17;10.13;;;6.87;;
75450;SDS011;64029;48.244;9.188;2023-07-16T11:39:47;5.30;;;4.30;;
75450;SDS011;64029;48.244;9.188;2023-07-16T11:42:14;2.40;;;2.20;;
75450;SDS011;64029;48.244;9.188;2023-07-16T11:44:48;3.10;;;2.57;;
75450;SDS011;64029;48.244;9.188;2023-07-16T11:47:15;2.23;;;2.03;;
75450;SDS011;64029;48.244;9.188;2023-07-16T11:49:42;5.00;;;2.50;;
75450;SDS011;64029;48.244;9.188;2023-07-16T11:52:09;5.90;;;2.57;;
75450;SDS011;64029;48.244;9.188;2023-07-16T11:54:36;3.50;;;1.97;;
75450;SDS011;64029;48.244;9.188;2023-07-16T11:57:05;3.50;;;2.30;;
75450;SDS011;64029;48.244;9.188;2023-07-16T11:59:32;2.30;;;2.10;;
75450;SDS011;64029;48.244;9.188;2023-07-16T12:01:59;2.87;;;2.57;;
75450;SDS011;64029;48.244;9.188;2023-07-16T12:04:26;2.90;;;1.80;;
75450;SDS011;64029;48.244;9.188;2023-07-16T12:06:53;2.40;;;2.10;;
75450;SDS011;64029;48.244;9.188;2023-07-16T12:09:20;6.70;;;3.00;;
75450;SDS011;64029;48.244;9.188;2023-07-16T12:11:47;2.60;;;2.37;;
75450;SDS011;64029;48.244;9.188;2023-07-16T12:14:15;3.03;;;1.97;;
75450;SDS011;64029;48.244;9.188;2023-07-16T12:16:42;4.37;;;2.13;;
75450;SDS011;64029;48.244;9.188;2023-07-16T12:19:09;3.00;;;2.33;;
75450;SDS011;64029;48.244;9.188;2023-07-16T12:21:36;2.47;;;2.27;;
75450;SDS011;64029;48.244;9.188;2023-07-16T12:24:04;2.97;;;1.60;;
75450;SDS011;64029;48.244;9.188;2023-07-16T12:26:31;3.10;;;1.90;;
75450;SDS011;64029;48.244;9.188;2023-07-16T12:28:59;3.20;;;2.17;;
75450;SDS011;64029;48.244;9.188;2023-07-16T12:31:29;2.83;;;2.30;;
75450;SDS011;64029;48.244;9.188;2023-07-16T12:33:56;3.07;;;2.17;;
75450;SDS011;64029;48.244;9.188;2023-07-16T12:36:23;3.07;;;2.70;;
75450;SDS011;64029;48.244;9.188;2023-07-16T12:38:50;4.17;;;2.80;;
75450;SDS011;64029;48.244;9.188;2023-07-16T12:41:17;3.50;;;2.20;;
75450;SDS011;64029;48.244;9.188;2023-07-16T12:43:45;3.97;;;2.07;;
75450;SDS011;64029;48.244;9.188;2023-07-16T12:46:12;3.30;;;2.00;;
75450;SDS011;64029;48.244;9.188;2023-07-16T12:48:40;4.43;;;2.20;;
75450;SDS011;64029;48.244;9.188;2023-07-16T12:51:08;2.97;;;2.00;;
75450;SDS011;64029;48.244;9.188;2023-07-16T12:53:35;2.40;;;2.20;;
75450;SDS011;64029;48.244;9.188;2023-07-16T12:56:03;3.13;;;2.43;;
75450;SDS011;64029;48.244;9.188;2023-07-16T12:58:30;3.60;;;2.00;;
75450;SDS011;64029;48.244;9.188;2023-07-16T13:00:58;3.53;;;2.70;;
75450;SDS011;64029;48.244;9.188;2023-07-16T13:03:25;2.40;;;2.10;;
75450;SDS011;64029;48.244;9.188;2023-07-16T13:05:54;3.23;;;2.33;;
75450;SDS011;64029;48.244;9.188;2023-07-16T13:08:21;3.00;;;2.37;;
75450;SDS011;64029;48.244;9.188;2023-07-16T13:10:48;2.10;;;1.90;;
75450;SDS011;64029;48.244;9.188;2023-07-16T13:13:15;2.50;;;2.10;;
75450;SDS011;64029;48.244;9.188;2023-07-16T13:15:41;3.93;;;2.50;;
75450;SDS011;64029;48.244;9.188;2023-07-16T13:18:10;3.20;;;2.50;;
75450;SDS011;64029;48.244;9.188;2023-07-16T13:20:37;4.20;;;2.43;;
75450;SDS011;64029;48.244;9.188;2023-07-16T13:23:06;3.83;;;2.43;;
75450;SDS011;64029;48.244;9.188;2023-07-16T13:25:33;3.33;;;2.20;;
75450;SDS011;64029;48.244;9.188;2023-07-16T13:28:01;4.60;;;2.50;;
75450;SDS011;64029;48.244;9.188;2023-07-16T13:30:28;4.40;;;2.23;;
75450;SDS011;64029;48.244;9.188;2023-07-16T13:32:55;4.70;;;2.33;;
75450;SDS011;64029;48.244;9.188;2023-07-16T13:35:22;2.53;;;2.33;;
75450;SDS011;64029;48.244;9.188;2023-07-16T13:37:50;2.20;;;2.00;;
75450;SDS011;64029;48.244;9.188;2023-07-16T13:40:19;3.67;;;2.57;;
75450;SDS011;64029;48.244;9.188;2023-07-16T13:42:46;2.60;;;2.40;;
75450;SDS011;64029;48.244;9.188;2023-07-16T13:45:13;3.73;;;2.27;;
75450;SDS011;64029;48.244;9.188;2023-07-16T13:47:40;2.13;;;1.93;;
75450;SDS011;64029;48.244;9.188;2023-07-16T13:50:08;2.17;;;1.87;;
75450;SDS011;64029;48.244;9.188;2023-07-16T13:52:35;3.20;;;2.50;;
75450;SDS011;64029;48.244;9.188;2023-07-16T13:55:03;2.50;;;2.10;;
75450;SDS011;64029;48.244;9.188;2023-07-16T13:57:32;5.53;;;2.30;;
75450;SDS011;64029;48.244;9.188;2023-07-16T13:59:59;5.10;;;2.10;;
75450;SDS011;64029;48.244;9.188;2023-07-16T14:02:26;2.67;;;2.20;;
75450;SDS011;64029;48.244;9.188;2023-07-16T14:04:53;3.67;;;2.40;;
75450;SDS011;64029;48.244;9.188;2023-07-16T14:07:20;4.90;;;2.47;;
75450;SDS011;64029;48.244;9.188;2023-07-16T14:09:47;3.00;;;2.43;;
75450;SDS011;64029;48.244;9.188;2023-07-16T14:12:13;3.43;;;2.77;;
75450;SDS011;64029;48.244;9.188;2023-07-16T14:14:42;3.30;;;2.47;;
75450;SDS011;64029;48.244;9.188;2023-07-16T14:17:09;2.53;;;2.33;;
75450;SDS011;64029;48.244;9.188;2023-07-16T14:19:35;3.40;;;2.57;;
75450;SDS011;64029;48.244;9.188;2023-07-16T14:22:02;2.80;;;2.30;;
75450;SDS011;64029;48.244;9.188;2023-07-16T14:24:30;3.10;;;2.47;;
75450;SDS011;64029;48.244;9.188;2023-07-16T14:26:57;4.40;;;2.60;;
75450;SDS011;64029;48.244;9.188;2023-07-16T14:29:26;2.70;;;2.50;;
75450;SDS011;64029;48.244;9.188;2023-07-16T14:31:55;2.70;;;2.50;;
75450;SDS011;64029;48.244;9.188;2023-07-16T14:34:22;3.90;;;2.87;;
75450;SDS011;64029;48.244;9.188;2023-07-16T14:36:49;5.20;;;2.63;;
75450;SDS011;64029;48.244;9.188;2023-07-16T14:39:16;5.70;;;2.53;;
75450;SDS011;64029;48.244;9.188;2023-07-16T14:41:43;4.33;;;3.27;;
75450;SDS011;64029;48.244;9.188;2023-07-16T14:44:10;3.90;;;2.47;;
75450;SDS011;64029;48.244;9.188;2023-07-16T14:46:37;2.67;;;2.30;;
75450;SDS011;64029;48.244;9.188;2023-07-16T14:49:05;2.97;;;2.73;;
75450;SDS011;64029;48.244;9.188;2023-07-16T14:51:32;2.63;;;2.43;;
75450;SDS011;64029;48.244;9.188;2023-07-16T14:54:04;2.80;;;2.40;;